createdAt,value
2019-04-25T00:02:01.836Z,8.80
2019-04-25T00:04:31.514Z,8.79
2019-04-25T00:07:00.010Z,8.88
2019-04-25T00:09:31.713Z,8.65
2019-04-25T00:12:00.234Z,8.50
2019-04-25T00:14:31.456Z,8.44
2019-04-25T00:17:01.747Z,8.61
2019-04-25T00:19:31.706Z,8.59
2019-04-25T00:22:02.073Z,8.49
2019-04-25T00:24:39.624Z,8.61
2019-04-25T00:27:08.238Z,8.61
2019-04-25T00:29:36.677Z,8.70
2019-04-25T00:32:05.177Z,8.52
2019-04-25T00:34:33.761Z,8.58
2019-04-25T00:37:02.598Z,8.85
2019-04-25T00:39:31.989Z,8.82
2019-04-25T00:42:02.173Z,8.80
2019-04-25T00:44:31.975Z,8.99
2019-04-25T00:47:02.282Z,8.88
2019-04-25T00:49:32.084Z,8.97
2019-04-25T00:52:01.952Z,8.72
2019-04-25T00:54:31.359Z,8.76
2019-04-25T00:56:59.925Z,8.70
2019-04-25T00:59:31.947Z,8.57
2019-04-25T01:02:13.769Z,8.56
2019-04-25T01:04:43.719Z,8.67
2019-04-25T01:07:12.721Z,8.53
2019-04-25T01:09:42.313Z,8.42
2019-04-25T01:12:11.594Z,8.53
2019-04-25T01:14:41.876Z,8.50
2019-04-25T01:17:11.633Z,8.40
2019-04-25T01:19:40.103Z,8.40
2019-04-25T01:22:08.806Z,8.18
2019-04-25T01:24:37.218Z,8.56
2019-04-25T01:27:05.711Z,8.61
2019-04-25T01:29:34.299Z,8.56
2019-04-25T01:32:04.738Z,8.62
2019-04-25T01:34:40.804Z,8.41
2019-04-25T01:37:11.056Z,8.47
2019-04-25T01:39:44.268Z,8.49
2019-04-25T01:42:29.662Z,8.49
2019-04-25T01:44:58.946Z,8.64
2019-04-25T01:47:28.477Z,8.62
2019-04-25T01:49:56.927Z,8.61
2019-04-25T01:52:25.417Z,8.57
2019-04-25T01:54:55.082Z,8.54
2019-04-25T01:57:24.078Z,8.62
2019-04-25T01:59:54.076Z,8.57
2019-04-25T02:02:24.351Z,8.69
2019-04-25T02:04:54.780Z,8.75
2019-04-25T02:07:23.359Z,8.52
2019-04-25T02:09:53.966Z,8.57
2019-04-25T02:12:23.739Z,8.73
2019-04-25T02:14:54.633Z,8.96
2019-04-25T02:17:24.106Z,8.83
2019-04-25T02:19:54.549Z,8.88
2019-04-25T02:22:24.277Z,8.99
2019-04-25T02:24:54.956Z,8.95
2019-04-25T02:27:24.239Z,8.95
2019-04-25T02:29:54.567Z,9.01
2019-04-25T02:32:24.725Z,8.74
2019-04-25T02:34:55.306Z,8.71
2019-04-25T02:37:25.724Z,8.64
2019-04-25T02:39:56.669Z,8.66
2019-04-25T02:42:24.610Z,8.92
2019-04-25T02:44:57.882Z,8.52
2019-04-25T02:47:26.691Z,8.74
2019-04-25T02:50:08.597Z,8.69
2019-04-25T02:52:39.695Z,8.71
2019-04-25T02:55:10.659Z,8.57
2019-04-25T02:57:38.441Z,8.77
2019-04-25T03:00:14.944Z,8.60
2019-04-25T03:02:44.500Z,8.85
2019-04-25T03:05:14.266Z,8.80
2019-04-25T03:07:44.626Z,8.70
2019-04-25T03:10:14.864Z,8.58
2019-04-25T03:12:44.660Z,8.73
2019-04-25T03:15:14.492Z,8.60
2019-04-25T03:17:44.406Z,8.55
2019-04-25T03:20:29.703Z,8.64
2019-04-25T03:23:01.226Z,8.58
2019-04-25T03:25:29.647Z,8.63
2019-04-25T03:27:59.620Z,8.46
2019-04-25T03:30:28.950Z,8.44
2019-04-25T03:32:57.423Z,8.44
2019-04-25T03:35:25.799Z,8.55
2019-04-25T03:37:54.533Z,8.33
2019-04-25T03:40:23.548Z,8.69
2019-04-25T03:42:51.943Z,8.73
2019-04-25T03:45:20.371Z,8.69
2019-04-25T03:47:48.838Z,8.64
2019-04-25T03:50:17.260Z,8.62
2019-04-25T03:52:45.670Z,8.36
2019-04-25T03:55:14.477Z,8.48
2019-04-25T03:57:44.304Z,8.18
2019-04-25T04:00:14.569Z,8.51
2019-04-25T04:02:44.245Z,8.42
2019-04-25T04:05:13.941Z,8.52
2019-04-25T04:07:43.529Z,8.52
2019-04-25T04:10:14.201Z,8.53
2019-04-25T04:12:44.207Z,8.44
2019-04-25T04:15:14.514Z,9.02
2019-04-25T04:18:00.924Z,8.78
2019-04-25T04:20:36.490Z,8.74
2019-04-25T04:23:09.251Z,8.54
2019-04-25T04:25:37.711Z,8.48
2019-04-25T04:28:06.258Z,8.72
2019-04-25T04:30:34.695Z,8.59
2019-04-25T04:33:03.603Z,9.23
2019-04-25T04:35:33.541Z,9.10
2019-04-25T04:38:02.097Z,9.05
2019-04-25T04:40:30.526Z,8.81
2019-04-25T04:42:59.576Z,8.73
2019-04-25T04:45:27.941Z,8.77
2019-04-25T04:47:56.410Z,8.78
2019-04-25T04:50:25.326Z,8.70
2019-04-25T04:52:54.078Z,8.84
2019-04-25T04:55:23.215Z,9.52
2019-04-25T04:57:51.806Z,9.53
2019-04-25T05:00:20.630Z,9.48
2019-04-25T05:02:50.717Z,9.65
2019-04-25T05:05:20.745Z,9.84
2019-04-25T05:07:53.948Z,9.98
2019-04-25T05:10:23.630Z,10.11
2019-04-25T05:12:53.281Z,10.21
2019-04-25T05:15:23.029Z,10.34
2019-04-25T05:17:51.942Z,10.29
2019-04-25T05:20:20.360Z,10.38
2019-04-25T05:22:48.802Z,10.22
2019-04-25T05:25:17.821Z,9.81
2019-04-25T05:28:00.175Z,9.73
2019-04-25T05:30:19.581Z,9.56
2019-04-25T05:32:48.186Z,9.90
2019-04-25T05:35:16.605Z,10.12
2019-04-25T05:37:45.050Z,9.95
2019-04-25T05:40:15.774Z,9.94
2019-04-25T05:42:48.640Z,9.95
2019-04-25T05:45:19.924Z,9.96
2019-04-25T05:47:48.424Z,9.93
2019-04-25T05:50:17.805Z,9.87
2019-04-25T05:52:46.440Z,9.98
2019-04-25T05:55:17.540Z,10.46
2019-04-25T05:57:49.869Z,10.74
2019-04-25T06:00:17.500Z,10.79
2019-04-25T06:02:46.194Z,11.37
2019-04-25T06:05:15.189Z,11.37
2019-04-25T06:07:43.615Z,12.10
2019-04-25T06:10:26.680Z,12.70
2019-04-25T06:13:05.576Z,13.36
2019-04-25T06:15:35.161Z,13.91
2019-04-25T06:18:21.194Z,13.88
2019-04-25T06:20:49.776Z,13.26
2019-04-25T06:23:22.620Z,13.66
2019-04-25T06:25:53.820Z,13.11
2019-04-25T06:28:24.851Z,13.25
2019-04-25T06:30:54.083Z,12.64
2019-04-25T06:33:24.555Z,13.29
2019-04-25T06:35:52.762Z,13.64
2019-04-25T06:38:21.347Z,14.16
2019-04-25T06:40:49.820Z,13.29
2019-04-25T06:43:18.226Z,13.04
2019-04-25T06:45:51.475Z,12.79
2019-04-25T06:48:25.063Z,13.04
2019-04-25T06:50:54.320Z,12.89
2019-04-25T06:53:24.747Z,13.05
2019-04-25T06:55:53.582Z,12.79
2019-04-25T06:58:23.287Z,12.57
2019-04-25T07:01:00.109Z,12.89
2019-04-25T07:03:23.445Z,13.06
2019-04-25T07:05:53.597Z,12.90
2019-04-25T07:08:23.142Z,13.07
2019-04-25T07:10:55.124Z,13.25
2019-04-25T07:13:24.708Z,13.04
2019-04-25T07:15:53.386Z,13.18
2019-04-25T07:18:23.538Z,12.87
2019-04-25T07:20:53.382Z,13.18
2019-04-25T07:23:23.532Z,12.99
2019-04-25T07:25:53.979Z,12.97
2019-04-25T07:28:39.218Z,12.94
2019-04-25T07:31:13.329Z,13.02
2019-04-25T07:33:46.477Z,13.21
2019-04-25T07:36:15.645Z,13.14
2019-04-25T07:38:44.066Z,13.46
2019-04-25T07:41:14.640Z,13.38
2019-04-25T07:43:43.328Z,13.63
2019-04-25T07:46:13.515Z,13.35
2019-04-25T07:48:43.640Z,13.33
2019-04-25T07:51:16.175Z,13.34
2019-04-25T07:53:43.593Z,13.40
2019-04-25T07:56:12.168Z,13.64
2019-04-25T07:58:49.375Z,13.88
2019-04-25T08:01:11.914Z,14.30
2019-04-25T08:03:40.353Z,14.36
2019-04-25T08:06:08.836Z,14.34
2019-04-25T08:08:38.105Z,14.34
2019-04-25T08:11:08.711Z,14.37
2019-04-25T08:13:47.615Z,14.18
2019-04-25T08:16:17.766Z,14.25
2019-04-25T08:18:48.124Z,14.32
2019-04-25T08:21:16.508Z,14.27
2019-04-25T08:23:45.115Z,14.36
2019-04-25T08:26:14.301Z,13.97
2019-04-25T08:28:51.978Z,14.01
2019-04-25T08:31:13.542Z,14.11
2019-04-25T08:33:43.472Z,14.22
2019-04-25T08:36:13.701Z,14.32
2019-04-25T08:38:44.410Z,14.29
2019-04-25T08:41:14.079Z,14.19
2019-04-25T08:43:44.948Z,14.31
2019-04-25T08:46:14.011Z,14.59
2019-04-25T08:49:04.729Z,14.47
2019-04-25T08:51:34.923Z,14.91
2019-04-25T08:54:08.760Z,14.97
2019-04-25T08:56:38.742Z,15.21
2019-04-25T08:59:34.595Z,15.20
2019-04-25T09:01:57.277Z,15.42
2019-04-25T09:04:27.318Z,15.37
2019-04-25T09:06:55.761Z,15.47
2019-04-25T09:09:24.097Z,15.81
2019-04-25T09:11:54.278Z,15.75
2019-04-25T09:14:24.462Z,15.81
2019-04-25T09:16:53.426Z,16.00
2019-04-25T09:19:21.869Z,15.77
2019-04-25T09:21:50.270Z,15.58
2019-04-25T09:24:18.712Z,15.79
2019-04-25T09:26:47.083Z,15.90
2019-04-25T09:29:19.412Z,15.58
2019-04-25T09:31:46.092Z,15.36
2019-04-25T09:34:14.546Z,15.45
2019-04-25T09:36:43.938Z,15.36
2019-04-25T09:39:23.716Z,15.26
2019-04-25T09:41:53.503Z,15.05
2019-04-25T09:44:24.208Z,15.04
2019-04-25T09:46:53.691Z,15.04
2019-04-25T09:49:23.856Z,15.52
2019-04-25T09:51:56.807Z,15.40
2019-04-25T09:54:29.902Z,15.54
2019-04-25T09:57:05.690Z,15.50
2019-04-25T09:59:35.283Z,15.47
2019-04-25T10:02:05.434Z,15.55
2019-04-25T10:04:34.678Z,15.89
2019-04-25T10:07:03.534Z,16.65
2019-04-25T10:09:33.677Z,16.26
2019-04-25T10:12:02.159Z,16.66
2019-04-25T10:14:36.748Z,17.06
2019-04-25T10:17:06.071Z,17.55
2019-04-25T10:19:34.594Z,17.69
2019-04-25T10:22:03.448Z,17.60
2019-04-25T10:24:32.334Z,17.91
2019-04-25T10:27:01.070Z,17.99
2019-04-25T10:29:39.375Z,17.66
2019-04-25T10:32:00.149Z,17.99
2019-04-25T10:34:28.553Z,17.82
2019-04-25T10:36:57.008Z,18.06
2019-04-25T10:39:26.006Z,18.19
2019-04-25T10:41:54.893Z,19.06
2019-04-25T10:44:24.581Z,19.32
2019-04-25T10:46:54.635Z,19.54
2019-04-25T10:49:23.645Z,19.58
2019-04-25T10:51:52.521Z,19.26
2019-04-25T10:54:20.943Z,19.75
2019-04-25T10:56:49.321Z,19.94
2019-04-25T10:59:17.797Z,19.51
2019-04-25T11:01:47.274Z,19.33
2019-04-25T11:04:17.326Z,19.18
2019-04-25T11:06:45.768Z,19.11
2019-04-25T11:09:18.892Z,18.83
2019-04-25T11:11:48.135Z,18.78
2019-04-25T11:14:16.590Z,18.83
2019-04-25T11:16:45.641Z,18.69
2019-04-25T11:19:15.348Z,18.58
2019-04-25T11:21:45.143Z,19.13
2019-04-25T11:24:14.329Z,19.26
2019-04-25T11:26:44.677Z,18.98
2019-04-25T11:29:13.246Z,19.26
2019-04-25T11:31:45.819Z,19.83
2019-04-25T11:34:16.817Z,19.98
2019-04-25T11:36:45.345Z,20.08
2019-04-25T11:39:25.043Z,19.96
2019-04-25T11:41:55.518Z,20.00
2019-04-25T11:44:24.534Z,19.63
2019-04-25T11:46:53.067Z,19.39
2019-04-25T11:49:21.501Z,19.46
2019-04-25T11:51:50.313Z,19.34
2019-04-25T11:54:18.687Z,19.10
2019-04-25T11:56:47.351Z,19.09
2019-04-25T11:59:15.909Z,18.92
2019-04-25T12:01:45.365Z,19.14
2019-04-25T12:04:14.979Z,18.96
2019-04-25T12:06:46.988Z,18.98
2019-04-25T12:09:13.978Z,18.96
2019-04-25T12:11:44.598Z,18.88
2019-04-25T12:14:12.516Z,19.23
2019-04-25T12:16:41.004Z,19.79
2019-04-25T12:19:09.528Z,19.53
2019-04-25T12:21:37.980Z,19.47
2019-04-25T12:24:06.560Z,19.22
2019-04-25T12:26:35.059Z,19.14
2019-04-25T12:29:04.422Z,19.35
2019-04-25T12:31:34.217Z,19.25
2019-04-25T12:34:03.555Z,19.17
2019-04-25T12:36:32.153Z,18.93
2019-04-25T12:39:01.099Z,19.10
2019-04-25T12:41:29.504Z,19.10
2019-04-25T12:44:15.710Z,19.23
2019-04-25T12:46:46.033Z,19.27
2019-04-25T12:49:15.238Z,19.23
2019-04-25T12:51:43.738Z,19.74
2019-04-25T12:54:13.799Z,19.68
2019-04-25T12:56:43.304Z,20.41
2019-04-25T12:59:11.789Z,19.96
2019-04-25T13:01:40.260Z,19.60
2019-04-25T13:04:08.871Z,19.80
2019-04-25T13:06:37.573Z,19.71
2019-04-25T13:09:07.232Z,19.92
2019-04-25T13:11:35.679Z,20.39
2019-04-25T13:14:04.188Z,20.58
2019-04-25T13:16:34.265Z,20.80
2019-04-25T13:19:13.448Z,20.52
2019-04-25T13:21:34.040Z,20.46
2019-04-25T13:24:03.047Z,20.43
2019-04-25T13:26:33.692Z,20.21
2019-04-25T13:29:23.176Z,20.32
2019-04-25T13:31:53.819Z,20.14
2019-04-25T13:34:36.009Z,20.35
2019-04-25T13:36:58.076Z,20.51
2019-04-25T13:39:27.333Z,20.68
2019-04-25T13:41:58.537Z,20.44
2019-04-25T13:44:26.083Z,20.56
2019-04-25T13:46:54.577Z,20.83
2019-04-25T13:49:23.026Z,21.15
2019-04-25T13:51:51.678Z,20.82
2019-04-25T13:54:20.899Z,21.13
2019-04-25T13:56:50.135Z,21.13
2019-04-25T13:59:18.622Z,20.73
2019-04-25T14:01:47.771Z,20.71
2019-04-25T14:04:16.390Z,20.94
2019-04-25T14:06:44.892Z,20.57
2019-04-25T14:09:14.955Z,20.46
2019-04-25T14:11:44.079Z,20.89
2019-04-25T14:14:12.927Z,20.96
2019-04-25T14:16:57.925Z,21.60
2019-04-25T14:19:39.797Z,21.53
2019-04-25T14:22:08.286Z,21.96
2019-04-25T14:24:36.783Z,21.37
2019-04-25T14:27:05.959Z,21.51
2019-04-25T14:29:34.852Z,21.28
2019-04-25T14:32:06.204Z,21.24
2019-04-25T14:34:34.629Z,21.20
2019-04-25T14:37:04.348Z,21.13
2019-04-25T14:39:33.363Z,21.12
2019-04-25T14:42:01.855Z,20.94
2019-04-25T14:44:31.233Z,20.96
2019-04-25T14:46:59.869Z,20.96
2019-04-25T14:49:28.377Z,21.02
2019-04-25T14:51:56.743Z,20.96
2019-04-25T14:54:32.697Z,20.75
2019-04-25T14:57:08.406Z,20.60
2019-04-25T14:59:36.829Z,20.56
2019-04-25T15:02:05.439Z,20.57
2019-04-25T15:04:35.279Z,20.56
2019-04-25T15:07:04.452Z,20.56
2019-04-25T15:09:32.913Z,20.47
2019-04-25T15:12:01.389Z,20.58
2019-04-25T15:14:29.887Z,20.56
2019-04-25T15:16:58.261Z,20.61
2019-04-25T15:19:27.517Z,20.60
2019-04-25T15:21:55.997Z,20.60
2019-04-25T15:24:25.082Z,20.77
2019-04-25T15:26:53.556Z,21.01
2019-04-25T15:29:21.949Z,20.99
2019-04-25T15:31:55.929Z,21.14
2019-04-25T15:34:22.304Z,21.40
2019-04-25T15:36:52.366Z,21.26
2019-04-25T15:39:22.400Z,21.49
2019-04-25T15:41:55.178Z,21.13
2019-04-25T15:44:37.282Z,21.50
2019-04-25T15:47:07.443Z,21.36
2019-04-25T15:49:36.974Z,21.66
2019-04-25T15:52:06.420Z,21.83
2019-04-25T15:54:34.872Z,22.05
2019-04-25T15:57:03.671Z,21.74
2019-04-25T15:59:32.757Z,22.22
2019-04-25T16:02:07.844Z,22.32
2019-04-25T16:04:32.407Z,22.59
2019-04-25T16:07:00.794Z,22.64
2019-04-25T16:09:29.922Z,22.66
2019-04-25T16:11:58.337Z,22.70
2019-04-25T16:14:26.944Z,22.73
2019-04-25T16:16:55.444Z,22.50
2019-04-25T16:19:23.911Z,22.39
2019-04-25T16:21:52.426Z,22.26
2019-04-25T16:24:20.862Z,22.24
2019-04-25T16:26:49.276Z,22.25
2019-04-25T16:29:17.813Z,22.28
2019-04-25T16:31:46.390Z,22.15
2019-04-25T16:34:14.824Z,22.06
2019-04-25T16:36:43.260Z,21.85
2019-04-25T16:39:13.478Z,21.78
2019-04-25T16:41:42.608Z,21.66
2019-04-25T16:44:12.884Z,21.46
2019-04-25T16:46:41.745Z,21.35
2019-04-25T16:49:10.209Z,21.14
2019-04-25T16:51:38.736Z,20.90
2019-04-25T16:54:07.158Z,20.99
2019-04-25T16:56:35.607Z,21.09
2019-04-25T16:59:04.188Z,21.17
2019-04-25T17:01:33.680Z,20.97
2019-04-25T17:04:02.337Z,20.39
2019-04-25T17:06:31.401Z,20.02
2019-04-25T17:08:59.898Z,19.86
2019-04-25T17:11:29.513Z,19.45
2019-04-25T17:14:03.029Z,19.45
2019-04-25T17:16:36.796Z,19.35
2019-04-25T17:19:13.496Z,19.33
2019-04-25T17:21:42.787Z,19.30
2019-04-25T17:24:11.393Z,19.26
2019-04-25T17:26:39.776Z,18.93
2019-04-25T17:29:09.876Z,18.99
2019-04-25T17:31:55.887Z,18.82
2019-04-25T17:34:25.980Z,18.76
2019-04-25T17:36:58.681Z,18.60
2019-04-25T17:39:32.154Z,18.58
2019-04-25T17:42:01.457Z,18.43
2019-04-25T17:44:29.943Z,18.27
2019-04-25T17:47:06.196Z,18.29
2019-04-25T17:49:28.539Z,17.98
2019-04-25T17:51:57.016Z,18.17
2019-04-25T17:54:25.494Z,18.24
2019-04-25T17:56:53.909Z,18.13
2019-04-25T17:59:22.649Z,18.01
2019-04-25T18:01:52.311Z,17.90
2019-04-25T18:04:20.752Z,17.78
2019-04-25T18:06:49.195Z,17.62
2019-04-25T18:09:17.755Z,17.57
2019-04-25T18:11:46.269Z,17.38
2019-04-25T18:14:14.901Z,17.30
2019-04-25T18:16:47.949Z,17.13
2019-04-25T18:19:18.103Z,17.02
2019-04-25T18:21:46.651Z,16.86
2019-04-25T18:24:33.100Z,16.80
2019-04-25T18:27:06.143Z,16.66
2019-04-25T18:29:35.068Z,16.63
2019-04-25T18:32:05.493Z,16.61
2019-04-25T18:34:35.991Z,16.45
2019-04-25T18:37:21.529Z,16.32
2019-04-25T18:39:51.540Z,16.18
2019-04-25T18:42:21.655Z,16.17
2019-04-25T18:44:50.184Z,16.11
2019-04-25T18:47:18.604Z,16.16
2019-04-25T18:49:47.007Z,16.08
2019-04-25T18:52:33.323Z,16.14
2019-04-25T18:55:21.164Z,16.03
2019-04-25T18:57:53.681Z,15.89
2019-04-25T19:00:40.398Z,15.76
2019-04-25T19:03:22.041Z,15.72
2019-04-25T19:05:52.096Z,15.74
2019-04-25T19:08:20.581Z,15.68
2019-04-25T19:10:48.982Z,15.50
2019-04-25T19:13:17.393Z,15.61
2019-04-25T19:15:45.861Z,15.54
2019-04-25T19:18:14.313Z,15.54
2019-04-25T19:20:43.868Z,15.50
2019-04-25T19:23:12.332Z,15.54
2019-04-25T19:25:41.583Z,15.53
2019-04-25T19:28:09.985Z,15.46
2019-04-25T19:30:38.705Z,15.50
2019-04-25T19:33:08.062Z,15.45
2019-04-25T19:35:36.763Z,15.47
2019-04-25T19:38:05.153Z,15.48
2019-04-25T19:40:38.212Z,15.31
2019-04-25T19:43:24.363Z,15.30
2019-04-25T19:45:52.799Z,15.12
2019-04-25T19:48:21.222Z,15.05
2019-04-25T19:50:50.574Z,15.05
2019-04-25T19:53:19.064Z,15.09
2019-04-25T19:55:47.616Z,15.19
2019-04-25T19:58:16.018Z,15.15
2019-04-25T20:00:44.623Z,15.17
2019-04-25T20:03:17.401Z,15.16
2019-04-25T20:05:53.258Z,15.15
2019-04-25T20:08:39.358Z,15.18
2019-04-25T20:11:09.500Z,15.21
2019-04-25T20:13:37.909Z,15.28
2019-04-25T20:16:06.887Z,15.28
2019-04-25T20:18:35.299Z,15.20
2019-04-25T20:21:03.731Z,15.22
2019-04-25T20:23:32.170Z,15.24
2019-04-25T20:26:00.560Z,15.19
2019-04-25T20:28:29.092Z,15.13
2019-04-25T20:30:57.571Z,15.20
2019-04-25T20:33:26.002Z,15.24
2019-04-25T20:35:55.305Z,15.22
2019-04-25T20:38:23.788Z,15.18
2019-04-25T20:40:52.216Z,15.15
2019-04-25T20:43:20.584Z,15.16
2019-04-25T20:45:50.057Z,15.01
2019-04-25T20:48:18.742Z,15.01
2019-04-25T20:50:48.273Z,14.96
2019-04-25T20:53:16.709Z,14.96
2019-04-25T20:55:45.235Z,14.98
2019-04-25T20:58:13.606Z,14.99
2019-04-25T21:00:46.047Z,15.02
2019-04-25T21:03:15.441Z,15.04
2019-04-25T21:05:45.032Z,15.09
2019-04-25T21:08:13.464Z,15.02
2019-04-25T21:10:41.892Z,14.96
2019-04-25T21:13:11.889Z,14.91
2019-04-25T21:15:54.257Z,14.87
2019-04-25T21:18:30.566Z,14.81
2019-04-25T21:20:59.229Z,14.81
2019-04-25T21:23:27.723Z,14.76
2019-04-25T21:25:56.949Z,14.64
2019-04-25T21:28:25.434Z,14.59
2019-04-25T21:30:54.776Z,14.57
2019-04-25T21:33:23.326Z,14.44
2019-04-25T21:35:53.613Z,14.30
2019-04-25T21:38:22.382Z,14.24
2019-04-25T21:41:08.403Z,14.18
2019-04-25T21:43:39.068Z,14.17
2019-04-25T21:46:07.804Z,14.15
2019-04-25T21:48:36.370Z,14.14
2019-04-25T21:51:06.566Z,14.07
2019-04-25T21:53:35.017Z,14.02
2019-04-25T21:56:04.005Z,13.91
2019-04-25T21:58:32.388Z,13.90
2019-04-25T22:01:02.823Z,13.89
2019-04-25T22:03:31.244Z,13.87
2019-04-25T22:06:00.725Z,13.88
2019-04-25T22:08:29.289Z,13.84
2019-04-25T22:10:57.755Z,13.84
2019-04-25T22:13:26.197Z,13.82
2019-04-25T22:15:55.101Z,13.69
2019-04-25T22:18:24.486Z,13.75
2019-04-25T22:20:52.930Z,13.84
2019-04-25T22:23:21.334Z,13.77
2019-04-25T22:25:49.970Z,13.70
2019-04-25T22:28:18.659Z,13.64
2019-04-25T22:30:48.984Z,13.50
2019-04-25T22:33:37.126Z,13.45
2019-04-25T22:36:09.986Z,13.50
2019-04-25T22:38:38.418Z,13.52
2019-04-25T22:41:07.850Z,13.49
2019-04-25T22:43:38.076Z,13.46
2019-04-25T22:46:06.685Z,13.42
2019-04-25T22:48:50.539Z,13.37
2019-04-25T22:51:18.950Z,13.40
2019-04-25T22:53:47.923Z,13.36
2019-04-25T22:56:16.392Z,13.24
2019-04-25T22:58:44.815Z,13.20
2019-04-25T23:01:18.065Z,13.19
2019-04-25T23:03:48.117Z,13.08
2019-04-25T23:06:16.674Z,12.82
2019-04-25T23:08:45.086Z,12.85
2019-04-25T23:11:13.516Z,12.91
2019-04-25T23:13:42.229Z,12.83
2019-04-25T23:16:11.125Z,12.83
2019-04-25T23:18:39.633Z,12.57
2019-04-25T23:21:08.559Z,12.43
2019-04-25T23:23:37.040Z,12.26
2019-04-25T23:26:07.910Z,12.26
2019-04-25T23:28:38.174Z,12.03
2019-04-25T23:31:08.302Z,12.02
2019-04-25T23:33:36.713Z,12.14
2019-04-25T23:36:05.615Z,12.34
2019-04-25T23:38:35.224Z,12.45
2019-04-25T23:41:05.783Z,12.56
2019-04-25T23:43:34.060Z,12.58
2019-04-25T23:46:02.534Z,12.58
2019-04-25T23:48:31.231Z,12.50
2019-04-25T23:50:59.636Z,12.53
2019-04-25T23:53:28.632Z,12.56
2019-04-25T23:55:57.118Z,12.55
2019-04-25T23:58:25.537Z,12.49
